Seagrace — 9HA3307 — position and weather

sailwx.info

Track history (hours):
 
Tides and Currents Weather Stations Pressure Air Temp Water Temp Dewpoint Dewpoint Depression Visibility Wind Speed Wind Dir Waves Ship Positions

Seagrace

Last reported at 2018-Jul-23 03:58 UTC. Time now 2018-Jul-23 03:59 UTC.
Position N 37°54' E 023°32'.

Length 244 m; draft 8 m.

Type: Tanker. MMSI: 229406000.

Date/timePositionNaut miles runAvg speedWind from/ knotsBaromVisibWave heightAir tempDewpointWater temp
2018-Jul-23 03:58N 37°54' E 023°32'0 0.1
2018-Jul-23 03:28N 37°54' E 023°32'0 0.0
2018-Jul-23 02:58N 37°54' E 023°32'0 0.1
2018-Jul-23 02:28N 37°54' E 023°32'0 0.1
2018-Jul-23 01:58N 37°54' E 023°32'0 0.1
2018-Jul-23 01:28N 37°54' E 023°32'0 0.0
2018-Jul-23 00:58N 37°54' E 023°32'0 0.2
2018-Jul-23 00:28N 37°54' E 023°32'0 0.0
2018-Jul-22 23:58N 37°54' E 023°32'0 0.2
2018-Jul-22 23:28N 37°54' E 023°32'0 0.1
2018-Jul-22 22:58N 37°54' E 023°32'0 0.1
2018-Jul-22 22:28N 37°54' E 023°32'0 0.1
2018-Jul-22 21:58N 37°54' E 023°32'0 0.2
2018-Jul-22 21:28N 37°54' E 023°32'0 0.1
2018-Jul-22 20:58N 37°54' E 023°32'0 0.0
2018-Jul-22 20:28N 37°54' E 023°32'0 0.1
2018-Jul-22 19:58N 37°54' E 023°32'0 0.0
2018-Jul-22 19:28N 37°54' E 023°32'0 0.1
2018-Jul-22 18:58N 37°54' E 023°32'0 0.1
2018-Jul-22 18:28N 37°54' E 023°32'0 0.4
2018-Jul-22 17:58N 37°54' E 023°32'0 0.1
2018-Jul-22 17:28N 37°54' E 023°32'0 0.1
2018-Jul-22 17:01N 37°54' E 023°32'0 0.3
2018-Jul-22 16:31N 37°54' E 023°32'0 0.1
2018-Jul-22 16:00N 37°54' E 023°32'0 0.2
2018-Jul-22 15:00N 37°54' E 023°32'1 2.1
2018-Jul-22 14:30N 37°54' E 023°34'4 7.4
2018-Jul-22 14:00N 37°52' E 023°37'5 9.3
2018-Jul-22 13:30N 37°48' E 023°41'510.8
2018-Jul-22 13:00N 37°43' E 023°44'510.1
2018-Jul-22 12:30N 37°38' E 023°45'510.9
2018-Jul-22 12:00N 37°33' E 023°43'611.0
2018-Jul-22 11:30N 37°27' E 023°41'511.0
2018-Jul-22 11:00N 37°22' E 023°40'510.4
2018-Jul-22 10:30N 37°17' E 023°38'2 3.4
2018-Jul-22 10:00N 37°15' E 023°38'0 0.8
2018-Jul-22 09:30N 37°15' E 023°39'0 0.7
2018-Jul-22 09:00N 37°15' E 023°39'0 0.8
2018-Jul-22 08:30N 37°15' E 023°40'0 0.8
2018-Jul-22 08:00N 37°15' E 023°40'0 0.9
2018-Jul-22 07:30N 37°15' E 023°41'0 0.9
2018-Jul-22 07:00N 37°15' E 023°41'0 0.9
2018-Jul-22 06:30N 37°15' E 023°42'0 0.9
2018-Jul-22 05:59N 37°15' E 023°42'1 1.0
2018-Jul-22 05:30N 37°15' E 023°43'1 1.1
2018-Jul-22 05:00N 37°15' E 023°44'1 1.2
2018-Jul-22 04:30N 37°15' E 023°44'1 1.1
2018-Jul-22 04:00N 37°15' E 023°45'1 1.0
2018-Jul-22 03:30N 37°15' E 023°46'0 1.0
2018-Jul-22 03:00N 37°16' E 023°46'0 0.8
2018-Jul-22 02:30N 37°16' E 023°46'0 0.6
2018-Jul-22 01:58N 37°16' E 023°47'0 0.4
2018-Jul-22 01:28N 37°16' E 023°47'0 0.4
2018-Jul-22 00:59N 37°16' E 023°47'1 0.4
2018-Jul-21 21:52N 37°16' E 023°49'0 0.3
2018-Jul-21 21:29N 37°16' E 023°49'0 0.4
2018-Jul-21 21:00N 37°16' E 023°49'0 0.4
2018-Jul-21 20:30N 37°16' E 023°49'0 0.5
2018-Jul-21 20:00N 37°16' E 023°50'0 0.5
2018-Jul-21 19:30N 37°16' E 023°50'0 0.5
2018-Jul-21 19:00N 37°16' E 023°50'0 0.5
2018-Jul-21 18:30N 37°16' E 023°51'0 0.5
2018-Jul-21 18:00N 37°16' E 023°51'1 0.6
2018-Jul-21 16:58N 37°16' E 023°52'1 0.7
2018-Jul-21 15:47N 37°16' E 023°53'0 0.9
2018-Jul-21 15:30N 37°16' E 023°53'0 0.9
2018-Jul-21 15:00N 37°16' E 023°54'1 0.9
2018-Jul-21 14:28N 37°16' E 023°54'2 1.0
2018-Jul-21 12:21N 37°17' E 023°57'6 2.2
2018-Jul-21 09:43N 37°12' E 023°53'2 9.3
2018-Jul-21 09:28N 37°10' E 023°52'6 9.8
2018-Jul-21 08:52N 37°05' E 023°48'410.1
2018-Jul-21 08:27N 37°01' E 023°45'  
2018-Jul-18 14:14N 43°56' E 014°35'810.6
2018-Jul-18 13:30N 44°03' E 014°30'1510.6
2018-Jul-18 12:08N 44°16' E 014°20'110.5
2018-Jul-18 12:00N 44°17' E 014°19'510.8
2018-Jul-18 11:30N 44°22' E 014°15'1110.7
2018-Jul-18 10:30N 44°31' E 014°08'510.4
2018-Jul-18 10:00N 44°36' E 014°06'5 9.6
2018-Jul-18 09:28N 44°41' E 014°06'1310.3
2018-Jul-18 08:11N 44°54' E 014°12'2410.2
2018-Jul-18 05:47N 45°15' E 014°29'2 7.7
2018-Jul-18 05:30N 45°14' E 014°32'0 0.0
2018-Jul-16 17:10N 45°14' E 014°32'0 0.1
2018-Jul-16 17:01N 45°14' E 014°32'23 7.4
2018-Jul-16 13:51N 44°55' E 014°12'611.3
2018-Jul-16 13:19N 44°49' E 014°09'412.1
2018-Jul-16 13:01N 44°46' E 014°08'612.0
2018-Jul-16 12:31N 44°40' E 014°05'612.1
2018-Jul-16 12:00N 44°34' E 014°07'712.2
2018-Jul-16 11:27N 44°28' E 014°10'  
2018-Jul-14 04:37N 36°26' E 014°60'112.0
2018-Jul-14 04:30N 36°26' E 014°58'612.2
2018-Jul-14 04:00N 36°26' E 014°50'612.2
2018-Jul-14 03:30N 36°25' E 014°43'611.5
2018-Jul-14 03:00N 36°26' E 014°36'612.3
2018-Jul-14 02:30N 36°29' E 014°29'612.3
2018-Jul-14 02:00N 36°32' E 014°23'612.3
2018-Jul-14 01:30N 36°35' E 014°16'612.2
2018-Jul-14 01:00N 36°36' E 014°08'611.8
2018-Jul-14 00:30N 36°38' E 014°02'611.7
2018-Jul-14 00:00N 36°41' E 013°55'611.7
2018-Jul-13 23:30N 36°45' E 013°49'611.5
2018-Jul-13 22:57N 36°48' E 013°43'511.4
2018-Jul-13 22:30N 36°51' E 013°38'611.2
2018-Jul-13 22:00N 36°54' E 013°32'611.2
2018-Jul-13 21:30N 36°57' E 013°26'611.3
2018-Jul-13 21:00N 37°00' E 013°20'611.3
2018-Jul-13 20:30N 37°03' E 013°14'611.4
2018-Jul-13 20:00N 37°07' E 013°08'611.2
2018-Jul-13 19:29N 37°10' E 013°02'611.5
2018-Jul-13 18:59N 37°13' E 012°56'611.6
2018-Jul-13 18:30N 37°16' E 012°50'13811.4
2018-Jul-13 06:22N 38°00' E 010°05'2512.7
2018-Jul-13 04:23N 37°60' E 009°33'512.3
2018-Jul-13 04:00N 38°00' E 009°27'  
Track history (hours):
 
Tides and Currents Weather Stations Pressure Air Temp Water Temp Dewpoint Dewpoint Depression Visibility Wind Speed Wind Dir Waves Ship Positions

Seagrace

Last reported at 2018-Jul-23 03:58 UTC. Time now 2018-Jul-23 03:59 UTC.
Position N 37°54' E 023°32'.

Length 244 m; draft 8 m.

Type: Tanker. MMSI: 229406000.

Date/timePositionNaut miles runAvg speedWind from/ knotsBaromVisibWave heightAir tempDewpointWater temp
2018-Jul-23 03:58N 37°54' E 023°32'0 0.1
2018-Jul-23 03:28N 37°54' E 023°32'0 0.0
2018-Jul-23 02:58N 37°54' E 023°32'0 0.1
2018-Jul-23 02:28N 37°54' E 023°32'0 0.1
2018-Jul-23 01:58N 37°54' E 023°32'0 0.1
2018-Jul-23 01:28N 37°54' E 023°32'0 0.0
2018-Jul-23 00:58N 37°54' E 023°32'0 0.2
2018-Jul-23 00:28N 37°54' E 023°32'0 0.0
2018-Jul-22 23:58N 37°54' E 023°32'0 0.2
2018-Jul-22 23:28N 37°54' E 023°32'0 0.1
2018-Jul-22 22:58N 37°54' E 023°32'0 0.1
2018-Jul-22 22:28N 37°54' E 023°32'0 0.1
2018-Jul-22 21:58N 37°54' E 023°32'0 0.2
2018-Jul-22 21:28N 37°54' E 023°32'0 0.1
2018-Jul-22 20:58N 37°54' E 023°32'0 0.0
2018-Jul-22 20:28N 37°54' E 023°32'0 0.1
2018-Jul-22 19:58N 37°54' E 023°32'0 0.0
2018-Jul-22 19:28N 37°54' E 023°32'0 0.1
2018-Jul-22 18:58N 37°54' E 023°32'0 0.1
2018-Jul-22 18:28N 37°54' E 023°32'0 0.4
2018-Jul-22 17:58N 37°54' E 023°32'0 0.1
2018-Jul-22 17:28N 37°54' E 023°32'0 0.1
2018-Jul-22 17:01N 37°54' E 023°32'0 0.3
2018-Jul-22 16:31N 37°54' E 023°32'0 0.1
2018-Jul-22 16:00N 37°54' E 023°32'0 0.2
2018-Jul-22 15:00N 37°54' E 023°32'1 2.1
2018-Jul-22 14:30N 37°54' E 023°34'4 7.4
2018-Jul-22 14:00N 37°52' E 023°37'5 9.3
2018-Jul-22 13:30N 37°48' E 023°41'510.8
2018-Jul-22 13:00N 37°43' E 023°44'510.1
2018-Jul-22 12:30N 37°38' E 023°45'510.9
2018-Jul-22 12:00N 37°33' E 023°43'611.0
2018-Jul-22 11:30N 37°27' E 023°41'511.0
2018-Jul-22 11:00N 37°22' E 023°40'510.4
2018-Jul-22 10:30N 37°17' E 023°38'2 3.4
2018-Jul-22 10:00N 37°15' E 023°38'0 0.8
2018-Jul-22 09:30N 37°15' E 023°39'0 0.7
2018-Jul-22 09:00N 37°15' E 023°39'0 0.8
2018-Jul-22 08:30N 37°15' E 023°40'0 0.8
2018-Jul-22 08:00N 37°15' E 023°40'0 0.9
2018-Jul-22 07:30N 37°15' E 023°41'0 0.9
2018-Jul-22 07:00N 37°15' E 023°41'0 0.9
2018-Jul-22 06:30N 37°15' E 023°42'0 0.9
2018-Jul-22 05:59N 37°15' E 023°42'1 1.0
2018-Jul-22 05:30N 37°15' E 023°43'1 1.1
2018-Jul-22 05:00N 37°15' E 023°44'1 1.2
2018-Jul-22 04:30N 37°15' E 023°44'1 1.1
2018-Jul-22 04:00N 37°15' E 023°45'1 1.0
2018-Jul-22 03:30N 37°15' E 023°46'0 1.0
2018-Jul-22 03:00N 37°16' E 023°46'0 0.8
2018-Jul-22 02:30N 37°16' E 023°46'0 0.6
2018-Jul-22 01:58N 37°16' E 023°47'0 0.4
2018-Jul-22 01:28N 37°16' E 023°47'0 0.4
2018-Jul-22 00:59N 37°16' E 023°47'1 0.4
2018-Jul-21 21:52N 37°16' E 023°49'0 0.3
2018-Jul-21 21:29N 37°16' E 023°49'0 0.4
2018-Jul-21 21:00N 37°16' E 023°49'0 0.4
2018-Jul-21 20:30N 37°16' E 023°49'0 0.5
2018-Jul-21 20:00N 37°16' E 023°50'0 0.5
2018-Jul-21 19:30N 37°16' E 023°50'0 0.5
2018-Jul-21 19:00N 37°16' E 023°50'0 0.5
2018-Jul-21 18:30N 37°16' E 023°51'0 0.5
2018-Jul-21 18:00N 37°16' E 023°51'1 0.6
2018-Jul-21 16:58N 37°16' E 023°52'1 0.7
2018-Jul-21 15:47N 37°16' E 023°53'0 0.9
2018-Jul-21 15:30N 37°16' E 023°53'0 0.9
2018-Jul-21 15:00N 37°16' E 023°54'1 0.9
2018-Jul-21 14:28N 37°16' E 023°54'2 1.0
2018-Jul-21 12:21N 37°17' E 023°57'6 2.2
2018-Jul-21 09:43N 37°12' E 023°53'2 9.3
2018-Jul-21 09:28N 37°10' E 023°52'6 9.8
2018-Jul-21 08:52N 37°05' E 023°48'410.1
2018-Jul-21 08:27N 37°01' E 023°45'  
2018-Jul-18 14:14N 43°56' E 014°35'810.6
2018-Jul-18 13:30N 44°03' E 014°30'1510.6
2018-Jul-18 12:08N 44°16' E 014°20'110.5
2018-Jul-18 12:00N 44°17' E 014°19'510.8
2018-Jul-18 11:30N 44°22' E 014°15'1110.7
2018-Jul-18 10:30N 44°31' E 014°08'510.4
2018-Jul-18 10:00N 44°36' E 014°06'5 9.6
2018-Jul-18 09:28N 44°41' E 014°06'1310.3
2018-Jul-18 08:11N 44°54' E 014°12'2410.2
2018-Jul-18 05:47N 45°15' E 014°29'2 7.7
2018-Jul-18 05:30N 45°14' E 014°32'0 0.0
2018-Jul-16 17:10N 45°14' E 014°32'0 0.1
2018-Jul-16 17:01N 45°14' E 014°32'23 7.4
2018-Jul-16 13:51N 44°55' E 014°12'611.3
2018-Jul-16 13:19N 44°49' E 014°09'412.1
2018-Jul-16 13:01N 44°46' E 014°08'612.0
2018-Jul-16 12:31N 44°40' E 014°05'612.1
2018-Jul-16 12:00N 44°34' E 014°07'712.2
2018-Jul-16 11:27N 44°28' E 014°10'  
2018-Jul-14 04:37N 36°26' E 014°60'112.0
2018-Jul-14 04:30N 36°26' E 014°58'612.2
2018-Jul-14 04:00N 36°26' E 014°50'612.2
2018-Jul-14 03:30N 36°25' E 014°43'611.5
2018-Jul-14 03:00N 36°26' E 014°36'612.3
2018-Jul-14 02:30N 36°29' E 014°29'612.3
2018-Jul-14 02:00N 36°32' E 014°23'612.3
2018-Jul-14 01:30N 36°35' E 014°16'612.2
2018-Jul-14 01:00N 36°36' E 014°08'611.8
2018-Jul-14 00:30N 36°38' E 014°02'611.7
2018-Jul-14 00:00N 36°41' E 013°55'611.7
2018-Jul-13 23:30N 36°45' E 013°49'611.5
2018-Jul-13 22:57N 36°48' E 013°43'511.4
2018-Jul-13 22:30N 36°51' E 013°38'611.2
2018-Jul-13 22:00N 36°54' E 013°32'611.2
2018-Jul-13 21:30N 36°57' E 013°26'611.3
2018-Jul-13 21:00N 37°00' E 013°20'611.3
2018-Jul-13 20:30N 37°03' E 013°14'611.4
2018-Jul-13 20:00N 37°07' E 013°08'611.2
2018-Jul-13 19:29N 37°10' E 013°02'611.5
2018-Jul-13 18:59N 37°13' E 012°56'611.6
2018-Jul-13 18:30N 37°16' E 012°50'13811.4
2018-Jul-13 06:22N 38°00' E 010°05'2512.7
2018-Jul-13 04:23N 37°60' E 009°33'512.3
2018-Jul-13 04:00N 38°00' E 009°27'  

Dump ship's entire track history